createdAt,value
2017-10-31T00:49:43.683Z,3.57
2017-10-31T00:52:09.749Z,3.87
2017-10-31T00:54:35.820Z,3.90
2017-10-31T00:57:01.939Z,3.93
2017-10-31T00:59:28.077Z,3.60
2017-10-31T01:01:54.202Z,3.73
2017-10-31T01:04:20.318Z,4.40
2017-10-31T01:06:46.384Z,3.43
2017-10-31T01:09:12.463Z,3.23
2017-10-31T01:11:38.577Z,4.30
2017-10-31T01:14:04.651Z,3.63
2017-10-31T01:16:30.739Z,4.00
2017-10-31T01:18:56.880Z,3.33
2017-10-31T01:21:22.965Z,4.80
2017-10-31T01:23:49.035Z,4.50
2017-10-31T01:26:15.132Z,4.77
2017-10-31T01:28:41.953Z,4.13
2017-10-31T01:31:08.024Z,5.80
2017-10-31T01:33:34.156Z,6.10
2017-10-31T01:36:01.022Z,4.20
2017-10-31T01:38:27.118Z,7.07
2017-10-31T01:40:53.260Z,5.47
2017-10-31T01:43:19.345Z,5.20
2017-10-31T01:45:45.496Z,4.17
2017-10-31T01:48:11.596Z,3.43
2017-10-31T01:50:38.443Z,3.00
2017-10-31T01:53:04.553Z,3.30
2017-10-31T01:55:30.699Z,2.50
2017-10-31T01:57:56.805Z,2.83
2017-10-31T02:00:22.956Z,3.40
2017-10-31T02:02:49.112Z,2.73
2017-10-31T02:05:15.185Z,3.37
2017-10-31T02:07:42.021Z,2.80
2017-10-31T02:10:08.141Z,3.30
2017-10-31T02:12:34.275Z,2.70
2017-10-31T02:15:00.380Z,3.40
2017-10-31T02:17:26.524Z,3.33
2017-10-31T02:19:52.665Z,4.90
2017-10-31T02:22:18.757Z,2.40
2017-10-31T02:24:45.616Z,3.20
2017-10-31T02:27:12.436Z,2.80
2017-10-31T02:29:38.585Z,2.50
2017-10-31T02:32:04.687Z,3.67
2017-10-31T02:34:30.862Z,2.07
2017-10-31T02:36:56.937Z,2.73
2017-10-31T02:39:23.070Z,2.70
2017-10-31T02:41:49.152Z,2.50
2017-10-31T02:44:15.241Z,2.20
2017-10-31T02:46:42.088Z,2.57
2017-10-31T02:49:08.164Z,1.83
2017-10-31T02:51:34.297Z,1.80
2017-10-31T02:54:00.413Z,2.20
2017-10-31T02:56:26.529Z,2.43
2017-10-31T02:58:53.345Z,2.60
2017-10-31T03:01:19.446Z,2.30
2017-10-31T03:03:45.543Z,2.23
2017-10-31T03:06:11.609Z,1.97
2017-10-31T03:08:38.487Z,2.17
2017-10-31T03:11:04.566Z,2.83
2017-10-31T03:13:30.634Z,2.60
2017-10-31T03:15:57.475Z,2.20
2017-10-31T03:18:23.580Z,2.43
2017-10-31T03:20:49.661Z,2.83
2017-10-31T03:23:16.775Z,2.50
2017-10-31T03:25:42.940Z,2.50
2017-10-31T03:28:09.173Z,2.80
2017-10-31T03:30:35.392Z,2.67
2017-10-31T03:33:01.456Z,2.20
2017-10-31T03:35:27.524Z,2.70
2017-10-31T03:37:53.633Z,2.27
2017-10-31T03:40:19.710Z,2.63
2017-10-31T03:42:45.776Z,1.90
2017-10-31T03:45:11.876Z,2.43
2017-10-31T03:47:37.967Z,2.90
2017-10-31T03:50:04.152Z,2.30
2017-10-31T03:52:31.061Z,2.60
2017-10-31T03:54:57.147Z,2.47
2017-10-31T03:57:23.223Z,2.40
2017-10-31T03:59:49.320Z,2.80
2017-10-31T04:02:16.200Z,2.50
2017-10-31T04:04:42.280Z,2.17
2017-10-31T04:07:08.397Z,2.40
2017-10-31T04:09:34.472Z,2.40
2017-10-31T04:12:01.330Z,2.20
2017-10-31T04:14:28.176Z,2.47
2017-10-31T04:16:54.249Z,2.77
2017-10-31T04:19:20.349Z,2.20
2017-10-31T04:21:46.472Z,2.40
2017-10-31T04:24:12.557Z,2.20
2017-10-31T04:26:38.649Z,2.57
2017-10-31T04:29:04.752Z,2.73
2017-10-31T04:31:30.833Z,2.27
2017-10-31T04:33:56.912Z,2.87
2017-10-31T04:36:23.057Z,2.50
2017-10-31T04:38:49.139Z,2.50
2017-10-31T04:41:15.232Z,2.10
2017-10-31T04:43:41.345Z,3.20
2017-10-31T04:46:08.177Z,2.37
2017-10-31T04:48:34.266Z,3.00
2017-10-31T04:51:00.389Z,3.17
2017-10-31T04:53:26.612Z,2.10
2017-10-31T04:55:53.437Z,2.50
2017-10-31T04:58:19.541Z,3.20
2017-10-31T05:00:45.682Z,2.40
2017-10-31T05:03:11.777Z,2.90
2017-10-31T05:05:38.649Z,2.53
2017-10-31T05:08:04.737Z,2.33
2017-10-31T05:10:30.859Z,3.07
2017-10-31T05:12:56.994Z,2.40
2017-10-31T05:15:23.070Z,2.97
2017-10-31T05:17:49.901Z,2.67
2017-10-31T05:20:16.016Z,3.03
2017-10-31T05:22:42.114Z,3.03
2017-10-31T05:25:08.930Z,2.90
2017-10-31T05:27:35.048Z,3.77
2017-10-31T05:30:01.220Z,3.20
2017-10-31T05:32:27.298Z,3.30
2017-10-31T05:34:53.393Z,3.90
2017-10-31T05:37:19.480Z,3.83
2017-10-31T05:39:45.605Z,3.50
2017-10-31T05:42:11.795Z,3.90
2017-10-31T05:44:38.321Z,3.97
2017-10-31T05:47:04.401Z,3.67
2017-10-31T05:49:30.533Z,3.83
2017-10-31T05:51:56.612Z,4.10
2017-10-31T05:54:22.750Z,4.20
2017-10-31T05:56:48.860Z,4.57
2017-10-31T05:59:14.929Z,4.30
2017-10-31T06:01:41.051Z,4.80
2017-10-31T06:04:07.201Z,4.63
2017-10-31T06:06:33.288Z,5.07
2017-10-31T06:08:59.362Z,5.60
2017-10-31T06:11:25.459Z,5.63
2017-10-31T06:13:51.665Z,5.00
2017-10-31T06:16:17.754Z,5.80
2017-10-31T06:18:44.602Z,5.83
2017-10-31T06:21:10.677Z,5.50
2017-10-31T06:23:42.824Z,6.40
2017-10-31T06:26:14.985Z,6.63
2017-10-31T06:28:47.219Z,6.00
2017-10-31T06:31:19.592Z,6.00
2017-10-31T06:33:46.461Z,6.40
2017-10-31T06:36:12.568Z,6.13
2017-10-31T06:38:38.808Z,6.63
2017-10-31T06:41:05.642Z,6.70
2017-10-31T06:43:31.727Z,6.20
2017-10-31T06:45:57.854Z,6.77
2017-10-31T06:48:23.938Z,7.87
2017-10-31T06:50:50.014Z,7.10
2017-10-31T06:53:16.909Z,7.40
2017-10-31T06:55:43.050Z,7.63
2017-10-31T06:58:09.145Z,7.27
2017-10-31T07:00:36.068Z,7.50
2017-10-31T07:03:02.208Z,7.40
2017-10-31T07:05:28.311Z,6.80
2017-10-31T07:07:54.464Z,7.10
2017-10-31T07:10:20.586Z,6.97
2017-10-31T07:12:46.661Z,8.10
2017-10-31T07:15:12.798Z,7.70
2017-10-31T07:17:38.911Z,7.43
2017-10-31T07:20:04.997Z,7.60
2017-10-31T07:22:31.130Z,7.17
2017-10-31T07:24:57.204Z,7.73
2017-10-31T07:27:23.341Z,7.27
2017-10-31T07:29:49.526Z,7.63
2017-10-31T07:32:15.649Z,6.80
2017-10-31T07:34:41.723Z,7.20
2017-10-31T07:37:07.922Z,7.17
2017-10-31T07:39:33.998Z,6.93
2017-10-31T07:42:00.081Z,7.20
2017-10-31T07:44:26.214Z,7.30
2017-10-31T07:46:52.294Z,7.10
2017-10-31T07:49:18.378Z,6.90
2017-10-31T07:51:44.550Z,7.00
2017-10-31T07:54:10.716Z,8.00
2017-10-31T07:56:37.014Z,7.30
2017-10-31T07:59:03.200Z,6.60
2017-10-31T08:01:29.289Z,6.53
2017-10-31T08:03:55.381Z,7.27
2017-10-31T08:06:21.511Z,6.67
2017-10-31T08:08:47.590Z,8.03
2017-10-31T08:11:13.705Z,7.00
2017-10-31T08:13:40.560Z,7.13
2017-10-31T08:16:07.417Z,6.53
2017-10-31T08:18:34.252Z,5.60
2017-10-31T08:21:00.370Z,5.67
2017-10-31T08:23:26.610Z,6.60
2017-10-31T08:25:52.707Z,5.80
2017-10-31T08:28:18.818Z,6.70
2017-10-31T08:30:44.906Z,5.87
2017-10-31T08:33:11.035Z,8.60
2017-10-31T08:35:37.253Z,5.97
2017-10-31T08:38:03.439Z,9.30
2017-10-31T08:40:29.622Z,8.20
2017-10-31T08:42:56.526Z,7.50
2017-10-31T08:45:22.663Z,7.30
2017-10-31T08:47:48.742Z,7.30
2017-10-31T08:50:14.894Z,9.30
2017-10-31T08:52:41.728Z,19.57
2017-10-31T08:55:07.823Z,8.23
2017-10-31T08:57:33.990Z,8.13
2017-10-31T09:00:00.355Z,8.33
2017-10-31T09:02:26.481Z,7.27
2017-10-31T09:04:52.705Z,6.63
2017-10-31T09:07:18.805Z,10.43
2017-10-31T09:09:44.930Z,11.63
2017-10-31T09:12:11.225Z,9.43
2017-10-31T09:14:37.414Z,10.07
2017-10-31T09:17:03.510Z,10.07
2017-10-31T09:19:29.702Z,9.77
2017-10-31T09:21:55.899Z,6.53
2017-10-31T09:24:21.998Z,6.63
2017-10-31T09:26:48.126Z,6.37
2017-10-31T09:29:14.212Z,7.40
2017-10-31T09:31:40.285Z,7.33
2017-10-31T09:34:06.495Z,9.13
2017-10-31T09:36:33.444Z,7.83
2017-10-31T09:38:59.530Z,6.97
2017-10-31T09:41:25.852Z,6.40
2017-10-31T09:43:51.938Z,6.60
2017-10-31T09:46:18.057Z,6.10
2017-10-31T09:48:44.193Z,7.60
2017-10-31T09:51:10.346Z,7.90
2017-10-31T09:53:36.514Z,7.20
2017-10-31T09:56:03.532Z,9.60
2017-10-31T09:58:29.786Z,13.17
2017-10-31T10:00:55.992Z,14.33
2017-10-31T10:03:23.201Z,6.60
2017-10-31T10:05:49.294Z,6.30
2017-10-31T10:08:15.478Z,6.17
2017-10-31T10:10:41.584Z,5.93
2017-10-31T10:13:07.686Z,6.10
2017-10-31T10:15:34.525Z,9.87
2017-10-31T10:18:00.711Z,6.50
2017-10-31T10:20:26.858Z,5.70
2017-10-31T10:22:52.970Z,5.63
2017-10-31T10:25:19.073Z,5.83
2017-10-31T10:27:45.184Z,5.23
2017-10-31T10:30:11.316Z,5.30
2017-10-31T10:32:37.461Z,5.30
2017-10-31T10:35:03.570Z,5.47
2017-10-31T10:37:29.670Z,5.47
2017-10-31T10:39:55.785Z,5.23
2017-10-31T10:42:21.929Z,5.53
2017-10-31T10:44:48.042Z,5.20
2017-10-31T10:47:14.178Z,5.13
2017-10-31T10:49:40.318Z,5.13
2017-10-31T10:52:06.397Z,4.57
2017-10-31T10:54:32.594Z,4.77
2017-10-31T10:56:58.685Z,4.60
2017-10-31T10:59:24.849Z,4.50
2017-10-31T11:01:51.034Z,5.00
2017-10-31T11:04:17.129Z,5.27
2017-10-31T11:06:43.338Z,4.63
2017-10-31T11:09:10.496Z,5.33
2017-10-31T11:11:36.610Z,7.10
2017-10-31T11:14:02.782Z,5.50
2017-10-31T11:16:28.921Z,4.93
2017-10-31T11:18:55.068Z,5.30
2017-10-31T11:21:21.340Z,5.80
2017-10-31T11:23:47.461Z,5.13
2017-10-31T11:26:13.585Z,4.60
2017-10-31T11:28:40.520Z,4.40
2017-10-31T11:31:07.431Z,4.50
2017-10-31T11:33:33.672Z,3.57
2017-10-31T11:36:00.326Z,4.33
2017-10-31T11:38:26.479Z,4.27
2017-10-31T11:40:52.638Z,4.43
2017-10-31T11:43:18.881Z,4.47
2017-10-31T11:45:45.101Z,4.70
2017-10-31T11:48:11.225Z,4.80
2017-10-31T11:50:37.409Z,4.50
2017-10-31T11:53:03.736Z,3.77
2017-10-31T11:55:30.258Z,4.20
2017-10-31T11:57:56.418Z,4.30
2017-10-31T12:00:22.629Z,3.90
2017-10-31T12:02:48.746Z,3.87
2017-10-31T12:05:14.846Z,4.30
2017-10-31T12:07:40.990Z,4.80
2017-10-31T12:10:07.156Z,5.03
2017-10-31T12:12:33.274Z,4.30
2017-10-31T12:14:59.549Z,3.60
2017-10-31T12:17:26.697Z,5.13
2017-10-31T12:19:52.796Z,5.20
2017-10-31T12:22:19.830Z,4.23
2017-10-31T12:24:45.995Z,3.97
2017-10-31T12:27:13.139Z,3.90
2017-10-31T12:29:39.262Z,3.60
2017-10-31T12:32:05.391Z,3.80
2017-10-31T12:34:31.711Z,4.30
2017-10-31T12:36:57.935Z,4.23
2017-10-31T12:39:24.066Z,4.33
2017-10-31T12:41:50.189Z,3.67
2017-10-31T12:44:16.344Z,4.13
2017-10-31T12:46:42.582Z,5.57
2017-10-31T12:49:08.698Z,4.00
2017-10-31T12:51:34.874Z,3.50
2017-10-31T12:54:01.717Z,3.50
2017-10-31T12:56:28.920Z,3.43
2017-10-31T12:58:55.122Z,4.50
2017-10-31T13:01:22.088Z,4.90
2017-10-31T13:03:48.283Z,3.47
2017-10-31T13:06:14.464Z,5.30
2017-10-31T13:08:41.430Z,4.03
2017-10-31T13:11:07.637Z,4.93
2017-10-31T13:13:33.819Z,4.20
2017-10-31T13:16:00.031Z,5.90
2017-10-31T13:18:26.189Z,5.53
2017-10-31T13:20:52.340Z,5.23
2017-10-31T13:23:19.078Z,4.20
2017-10-31T13:25:45.206Z,7.73
2017-10-31T13:28:11.842Z,14.40
2017-10-31T13:30:38.674Z,14.60
2017-10-31T13:33:05.503Z,17.00
2017-10-31T13:35:32.334Z,12.30
2017-10-31T13:37:59.618Z,37.13
2017-10-31T13:40:27.835Z,12.33
2017-10-31T13:42:54.702Z,10.77
2017-10-31T13:45:20.871Z,6.93
2017-10-31T13:47:47.594Z,6.97
2017-10-31T13:50:15.168Z,6.20
2017-10-31T13:52:41.301Z,5.90
2017-10-31T13:55:07.407Z,4.43
2017-10-31T13:57:33.629Z,4.50
2017-10-31T14:00:09.110Z,3.00
2017-10-31T14:02:35.989Z,4.30
2017-10-31T14:05:02.738Z,4.70
2017-10-31T14:07:29.178Z,4.20
2017-10-31T14:09:55.903Z,3.07
2017-10-31T14:12:22.613Z,5.70
2017-10-31T14:14:48.713Z,3.57
2017-10-31T14:17:14.911Z,6.60
2017-10-31T14:19:42.531Z,2.87
2017-10-31T14:22:08.631Z,6.90
2017-10-31T14:24:35.554Z,7.23
2017-10-31T14:27:01.706Z,11.07
2017-10-31T14:29:27.850Z,8.90
2017-10-31T14:31:54.008Z,6.23
2017-10-31T14:34:20.129Z,5.70
2017-10-31T14:36:46.234Z,3.70
2017-10-31T14:39:12.355Z,5.20
2017-10-31T14:41:38.467Z,5.43
2017-10-31T14:44:04.565Z,6.10
2017-10-31T14:46:31.502Z,3.90
2017-10-31T14:48:57.693Z,6.30
2017-10-31T14:51:23.925Z,7.00
2017-10-31T14:53:50.074Z,3.40
2017-10-31T14:56:16.163Z,5.00
2017-10-31T14:58:42.356Z,3.20
2017-10-31T15:01:08.480Z,3.30
2017-10-31T15:03:34.614Z,4.60
2017-10-31T15:06:01.492Z,6.00
2017-10-31T15:08:27.613Z,4.20
2017-10-31T15:10:53.706Z,5.70
2017-10-31T15:13:19.818Z,5.10
2017-10-31T15:15:45.953Z,5.70
2017-10-31T15:18:12.065Z,8.23
2017-10-31T15:20:38.146Z,16.07
2017-10-31T15:23:04.283Z,22.40
2017-10-31T15:25:30.426Z,21.00
2017-10-31T15:27:56.557Z,26.17
2017-10-31T15:30:29.661Z,36.50
2017-10-31T15:32:56.041Z,48.03
2017-10-31T15:35:22.127Z,87.47
2017-10-31T15:37:48.241Z,37.80
2017-10-31T15:40:14.342Z,102.83
2017-10-31T15:42:40.457Z,191.47
2017-10-31T15:45:06.741Z,140.07
2017-10-31T15:47:33.566Z,214.03
2017-10-31T15:49:59.669Z,146.07
2017-10-31T15:52:25.841Z,53.13
2017-10-31T15:54:52.026Z,46.97
2017-10-31T15:57:18.109Z,45.50
2017-10-31T15:59:44.236Z,99.47
2017-10-31T16:02:10.362Z,24.10
2017-10-31T16:04:37.004Z,54.57
2017-10-31T16:07:03.193Z,25.13
2017-10-31T16:09:29.350Z,68.30
2017-10-31T16:11:55.530Z,80.60
2017-10-31T16:14:21.662Z,97.17
2017-10-31T16:16:47.765Z,26.00
2017-10-31T16:19:13.917Z,20.10
2017-10-31T16:21:40.128Z,31.57
2017-10-31T16:24:06.270Z,19.30
2017-10-31T16:26:32.473Z,16.47
2017-10-31T16:28:58.820Z,14.97
2017-10-31T16:31:24.956Z,7.67
2017-10-31T16:33:51.071Z,8.60
2017-10-31T16:36:17.201Z,11.60
2017-10-31T16:38:43.366Z,8.40
2017-10-31T16:41:09.613Z,6.20
2017-10-31T16:43:35.745Z,5.20
2017-10-31T16:46:01.833Z,5.83
2017-10-31T16:48:27.995Z,6.40
2017-10-31T16:50:54.095Z,6.23
2017-10-31T16:53:20.184Z,6.03
2017-10-31T16:55:46.319Z,6.57
2017-10-31T16:58:12.458Z,7.07
2017-10-31T17:00:38.557Z,8.57
2017-10-31T17:03:04.678Z,8.60
2017-10-31T17:05:30.832Z,8.37
2017-10-31T17:07:57.058Z,7.23
2017-10-31T17:10:23.185Z,6.80
2017-10-31T17:12:50.365Z,7.70
2017-10-31T17:15:16.511Z,7.80
2017-10-31T17:17:42.671Z,7.43
2017-10-31T17:20:08.814Z,8.77
2017-10-31T17:22:35.641Z,8.23
2017-10-31T17:25:01.843Z,8.77
2017-10-31T17:27:28.019Z,9.33
2017-10-31T17:29:54.142Z,10.77
2017-10-31T17:32:20.271Z,12.40
2017-10-31T17:34:46.395Z,9.00
2017-10-31T17:37:12.541Z,13.57
2017-10-31T17:39:38.668Z,13.77
2017-10-31T17:42:04.815Z,27.23
2017-10-31T17:44:31.034Z,23.00
2017-10-31T17:46:57.206Z,11.87
2017-10-31T17:49:23.314Z,7.87
2017-10-31T17:51:49.395Z,12.67
2017-10-31T17:54:15.497Z,16.43
2017-10-31T17:56:41.615Z,16.40
2017-10-31T17:59:07.742Z,19.67
2017-10-31T18:01:34.601Z,18.93
2017-10-31T18:04:00.720Z,17.03
2017-10-31T18:06:27.576Z,28.67
2017-10-31T18:08:53.718Z,13.07
2017-10-31T18:11:19.846Z,12.40
2017-10-31T18:13:46.002Z,12.87
2017-10-31T18:16:12.219Z,9.10
2017-10-31T18:18:38.321Z,10.23
2017-10-31T18:21:04.426Z,9.50
2017-10-31T18:23:30.629Z,8.03
2017-10-31T18:25:56.850Z,8.00
2017-10-31T18:28:22.978Z,15.87
2017-10-31T18:30:49.118Z,9.80
2017-10-31T18:33:15.214Z,7.30
2017-10-31T18:35:41.368Z,9.70
2017-10-31T18:38:07.594Z,6.67
2017-10-31T18:40:33.767Z,6.93
2017-10-31T18:43:00.171Z,8.20
2017-10-31T18:45:27.174Z,14.40
2017-10-31T18:47:53.360Z,9.00
2017-10-31T18:50:19.566Z,10.83
2017-10-31T18:52:45.739Z,10.87
2017-10-31T18:55:11.829Z,5.70
2017-10-31T18:57:37.928Z,9.47
2017-10-31T19:00:04.787Z,11.83
2017-10-31T19:02:30.914Z,11.50
2017-10-31T19:04:57.801Z,8.10
2017-10-31T19:07:23.955Z,9.27
2017-10-31T19:09:50.053Z,10.47
2017-10-31T19:12:16.942Z,8.00
2017-10-31T19:14:43.039Z,7.77
2017-10-31T19:17:09.920Z,8.60
2017-10-31T19:19:36.013Z,10.20
2017-10-31T19:22:02.271Z,8.70
2017-10-31T19:24:29.154Z,9.10
2017-10-31T19:26:55.287Z,10.10
2017-10-31T19:29:21.417Z,9.70
2017-10-31T19:31:47.583Z,8.30
2017-10-31T19:34:13.697Z,12.50
2017-10-31T19:36:39.793Z,11.67
2017-10-31T19:39:05.922Z,22.33
2017-10-31T19:41:32.101Z,15.30
2017-10-31T19:43:58.251Z,26.27
2017-10-31T19:46:24.402Z,66.37
2017-10-31T19:48:50.581Z,28.93
2017-10-31T19:51:16.730Z,69.43
2017-10-31T19:53:42.888Z,27.20
2017-10-31T19:56:09.750Z,105.03
2017-10-31T19:58:36.686Z,115.30
2017-10-31T20:01:02.833Z,15.67
2017-10-31T20:03:28.979Z,209.37
2017-10-31T20:05:55.817Z,22.00
2017-10-31T20:08:21.919Z,89.80
2017-10-31T20:10:48.009Z,42.77
2017-10-31T20:13:14.854Z,44.53
2017-10-31T20:15:40.949Z,37.33
2017-10-31T20:18:07.182Z,47.00
2017-10-31T20:20:33.436Z,30.73
2017-10-31T20:22:59.769Z,9.93
2017-10-31T20:25:26.109Z,12.67
2017-10-31T20:27:52.544Z,11.00
2017-10-31T20:30:19.120Z,17.23
2017-10-31T20:32:45.309Z,16.70
2017-10-31T20:35:11.498Z,22.13
2017-10-31T20:37:38.250Z,13.97
2017-10-31T20:40:04.653Z,15.27
2017-10-31T20:42:30.871Z,19.53
2017-10-31T20:44:57.739Z,25.47
2017-10-31T20:47:24.625Z,13.50
2017-10-31T20:49:50.781Z,18.20
2017-10-31T20:52:16.863Z,12.30
2017-10-31T20:54:43.741Z,13.20
2017-10-31T20:57:09.833Z,12.60
2017-10-31T20:59:35.916Z,10.83
2017-10-31T21:02:02.733Z,11.77
2017-10-31T21:04:28.870Z,11.13
2017-10-31T21:06:55.036Z,11.10
2017-10-31T21:09:21.180Z,10.90
2017-10-31T21:11:48.042Z,11.57
2017-10-31T21:14:14.217Z,10.93
2017-10-31T21:16:40.349Z,11.83
2017-10-31T21:19:07.235Z,11.67
2017-10-31T21:21:33.407Z,15.10
2017-10-31T21:23:59.591Z,13.80
2017-10-31T21:26:25.937Z,17.30
2017-10-31T21:28:52.204Z,11.17
2017-10-31T21:31:18.366Z,17.20
2017-10-31T21:33:44.769Z,11.57
2017-10-31T21:36:10.914Z,10.97
2017-10-31T21:38:37.119Z,11.93
2017-10-31T21:41:03.438Z,12.87
2017-10-31T21:43:29.672Z,15.63
2017-10-31T21:45:56.015Z,12.03
2017-10-31T21:48:23.230Z,34.77
2017-10-31T21:50:49.422Z,36.87
2017-10-31T21:53:15.557Z,15.73
2017-10-31T21:55:42.033Z,11.90
2017-10-31T21:58:09.257Z,13.00
2017-10-31T22:00:35.506Z,11.30
2017-10-31T22:03:01.842Z,14.27
2017-10-31T22:05:31.114Z,16.43
2017-10-31T22:07:57.428Z,10.70
2017-10-31T22:10:25.533Z,11.87
2017-10-31T22:12:51.769Z,11.47
2017-10-31T22:15:19.458Z,11.17
2017-10-31T22:17:45.847Z,14.30
2017-10-31T22:20:12.240Z,14.17
2017-10-31T22:22:38.610Z,14.50
2017-10-31T22:25:06.891Z,11.87
2017-10-31T22:27:33.204Z,16.60
2017-10-31T22:29:59.485Z,13.10
2017-10-31T22:32:26.558Z,17.00
2017-10-31T22:34:54.714Z,10.70
2017-10-31T22:37:21.233Z,10.60
2017-10-31T22:39:47.454Z,11.97
2017-10-31T22:42:13.650Z,13.73
2017-10-31T22:44:39.955Z,12.03
2017-10-31T22:47:06.943Z,10.30
2017-10-31T22:49:33.218Z,13.90
2017-10-31T22:51:59.602Z,14.83
2017-10-31T22:54:25.916Z,15.20
2017-10-31T22:56:52.175Z,12.73
2017-10-31T22:59:19.197Z,12.10
2017-10-31T23:01:46.214Z,13.57
2017-10-31T23:04:12.415Z,11.07
2017-10-31T23:06:38.650Z,11.00
2017-10-31T23:09:04.865Z,11.73
2017-10-31T23:11:31.265Z,10.37
2017-10-31T23:13:58.460Z,11.60
2017-10-31T23:16:24.745Z,14.33
2017-10-31T23:18:51.028Z,12.03
2017-10-31T23:21:17.913Z,11.90
2017-10-31T23:23:44.146Z,10.70
2017-10-31T23:26:10.393Z,10.90
2017-10-31T23:28:36.602Z,11.20
2017-10-31T23:31:02.801Z,11.10
2017-10-31T23:33:29.078Z,10.70
2017-10-31T23:35:55.430Z,11.77
2017-10-31T23:38:21.747Z,12.13
2017-10-31T23:40:48.708Z,13.30
2017-10-31T23:43:14.817Z,12.17
2017-10-31T23:45:40.923Z,13.33
2017-10-31T23:48:07.017Z,11.50
2017-10-31T23:50:33.270Z,13.30
2017-10-31T23:52:59.416Z,15.23
2017-10-31T23:55:25.814Z,12.70
2017-10-31T23:57:52.053Z,11.60
